Time;durP1;ratioP1;P1;durP2;ratioP2;P2;SDS_P1;SDS_P2;PMS_P1;PMS_P2;Temp;Humidity;BMP_temperature;BMP_pressure;BME280_temperature;BME280_humidity;BME280_pressure;Samples;Min_cycle;Max_cycle;Signal;HPM_P1;HPM_P2
2022/08/24 00:00:33;;;;;;;8.57;7.78;;;16.70;99.90;;;;;;5074066;28;20059;-52
2022/08/24 00:02:59;;;;;;;8.50;7.70;;;16.70;99.90;;;;;;5074078;28;20044;-52
2022/08/24 00:05:25;;;;;;;12.70;9.27;;;16.60;99.90;;;;;;5073903;28;20659;-52
2022/08/24 00:07:51;;;;;;;8.45;7.55;;;16.50;99.90;;;;;;5073980;28;20072;-53
2022/08/24 00:10:19;;;;;;;12.98;8.40;;;16.50;99.90;;;;;;5072502;28;20039;-52
2022/08/24 00:12:46;;;;;;;9.18;8.27;;;16.50;99.90;;;;;;5074068;28;20089;-53
2022/08/24 00:15:13;;;;;;;12.32;8.13;;;16.40;99.90;;;;;;5073647;28;20040;-51
2022/08/24 00:17:39;;;;;;;9.75;8.32;;;16.40;99.90;;;;;;5073923;28;20040;-51
2022/08/24 00:20:06;;;;;;;8.90;7.20;;;16.40;99.90;;;;;;5073899;28;20077;-53
2022/08/24 00:22:32;;;;;;;8.85;7.95;;;16.30;99.90;;;;;;5073558;28;20460;-51
2022/08/24 00:24:58;;;;;;;9.15;8.25;;;16.30;99.90;;;;;;5073724;28;20104;-53
2022/08/24 00:27:25;;;;;;;12.23;8.25;;;16.20;99.90;;;;;;5072580;28;20036;-53
2022/08/24 00:29:50;;;;;;;14.45;8.02;;;16.20;99.90;;;;;;5073407;28;20036;-53
2022/08/24 00:32:16;;;;;;;9.50;8.60;;;16.10;99.90;;;;;;5073496;28;20387;-52
2022/08/24 00:34:42;;;;;;;9.85;8.85;;;16.00;99.90;;;;;;5073657;28;20032;-53
2022/08/24 00:37:07;;;;;;;10.25;9.13;;;16.00;99.90;;;;;;5073396;28;20036;-53
2022/08/24 00:39:33;;;;;;;10.50;7.75;;;15.90;99.90;;;;;;5073493;28;20031;-52
2022/08/24 00:41:59;;;;;;;8.73;7.80;;;15.80;99.90;;;;;;5073426;28;20487;-52
2022/08/24 00:44:25;;;;;;;9.07;8.18;;;15.80;99.90;;;;;;5071389;28;20024;-53
2022/08/24 00:46:53;;;;;;;9.55;8.65;;;15.70;99.90;;;;;;5073460;28;20490;-52
2022/08/24 00:49:37;;;;;;;10.52;8.65;;;15.60;99.90;;;;;;5073184;28;20044;-53
2022/08/24 00:52:18;;;;;;;11.35;9.55;;;15.50;99.90;;;;;;5073058;28;20024;-55
2022/08/24 00:54:50;;;;;;;9.30;8.38;;;15.40;99.90;;;;;;5073172;28;20486;-53
2022/08/24 00:57:19;;;;;;;15.13;9.80;;;15.30;99.90;;;;;;5072983;28;20025;-51
2022/08/24 00:59:53;;;;;;;11.82;10.07;;;15.20;99.90;;;;;;5072828;28;20463;-54
2022/08/24 01:02:29;;;;;;;16.38;8.60;;;15.10;99.90;;;;;;5073066;28;20032;-51
2022/08/24 01:04:58;;;;;;;10.82;9.10;;;15.10;99.90;;;;;;5073024;28;20158;-53
2022/08/24 01:07:27;;;;;;;10.60;8.48;;;15.00;99.90;;;;;;5072579;28;20055;-52
2022/08/24 01:09:58;;;;;;;12.00;8.27;;;15.00;99.90;;;;;;5072854;28;20043;-51
2022/08/24 01:12:25;;;;;;;8.90;8.00;;;14.90;99.90;;;;;;5072733;28;20017;-55
2022/08/24 01:14:52;;;;;;;11.38;8.40;;;14.90;99.90;;;;;;5072656;28;20033;-53
2022/08/24 01:20:04;;;;;;;11.23;8.63;;;14.80;99.90;;;;;;5072770;28;20559;-54
2022/08/24 01:22:36;;;;;;;11.43;9.93;;;14.80;99.90;;;;;;5072567;28;20013;-53
2022/08/24 01:25:03;;;;;;;11.90;10.38;;;14.80;99.90;;;;;;5072570;28;20030;-52
2022/08/24 01:27:29;;;;;;;11.20;9.70;;;14.80;99.90;;;;;;5072175;28;20032;-52
2022/08/24 01:29:57;;;;;;;13.38;9.20;;;14.80;99.90;;;;;;5072305;28;20036;-54
2022/08/24 01:32:26;;;;;;;14.50;10.48;;;14.80;99.90;;;;;;5072221;28;20025;-55
2022/08/24 01:34:53;;;;;;;11.80;10.55;;;14.90;99.90;;;;;;5072367;28;20052;-53
2022/08/24 01:37:19;;;;;;;11.75;10.13;;;14.80;99.90;;;;;;5072109;28;20048;-52
2022/08/24 01:39:47;;;;;;;14.70;11.45;;;14.80;99.90;;;;;;5072275;28;20024;-54
2022/08/24 01:42:14;;;;;;;13.15;10.75;;;14.80;99.90;;;;;;5072061;28;20021;-53
2022/08/24 01:44:42;;;;;;;11.70;10.50;;;14.80;99.90;;;;;;5072088;28;20558;-54
2022/08/24 01:47:10;;;;;;;12.93;10.35;;;14.80;99.90;;;;;;5071958;28;20103;-54
2022/08/24 01:49:40;;;;;;;13.65;9.80;;;14.80;99.90;;;;;;5072111;28;20405;-53
2022/08/24 01:52:08;;;;;;;11.75;10.30;;;14.90;99.90;;;;;;5071932;28;20063;-55
2022/08/24 01:54:34;;;;;;;11.57;10.35;;;14.90;99.90;;;;;;5071884;28;20020;-51
2022/08/24 01:57:00;;;;;;;11.27;10.18;;;15.00;99.90;;;;;;5071940;28;20020;-53
2022/08/24 01:59:26;;;;;;;13.65;10.30;;;15.00;99.90;;;;;;5071523;28;20035;-52
2022/08/24 02:01:56;;;;;;;11.38;10.18;;;15.00;99.90;;;;;;5071896;28;20039;-55
2022/08/24 02:04:22;;;;;;;10.20;8.90;;;15.10;99.90;;;;;;5071220;28;20033;-54
2022/08/24 02:06:48;;;;;;;9.98;8.98;;;15.10;99.90;;;;;;5070407;28;20044;-55
2022/08/24 02:09:14;;;;;;;9.52;8.60;;;15.10;99.90;;;;;;5071498;28;20039;-51
2022/08/24 02:11:40;;;;;;;8.93;7.82;;;15.30;99.90;;;;;;5070492;28;20115;-54
2022/08/24 02:14:06;;;;;;;8.45;7.65;;;15.40;99.90;;;;;;5071424;28;20029;-54
2022/08/24 02:16:32;;;;;;;13.20;8.77;;;15.40;99.90;;;;;;5071591;28;20028;-54
2022/08/24 02:18:58;;;;;;;13.52;8.98;;;15.30;99.90;;;;;;5071766;28;20016;-51
2022/08/24 02:21:24;;;;;;;12.65;8.15;;;15.20;99.90;;;;;;5071715;28;20483;-53
2022/08/24 02:23:50;;;;;;;19.52;9.13;;;15.20;99.90;;;;;;5069831;28;20024;-53
2022/08/24 02:26:16;;;;;;;12.20;9.27;;;15.20;99.90;;;;;;5071427;28;20048;-55
2022/08/24 02:28:42;;;;;;;10.48;8.07;;;15.20;99.90;;;;;;5071422;28;20044;-53
2022/08/24 02:31:10;;;;;;;10.00;8.93;;;15.10;99.90;;;;;;5071258;28;20055;-52
2022/08/24 02:33:37;;;;;;;10.00;9.00;;;15.10;99.90;;;;;;5071423;28;20043;-53
2022/08/24 02:36:05;;;;;;;15.35;8.63;;;15.10;99.90;;;;;;5071357;28;20362;-52
2022/08/24 02:38:31;;;;;;;11.40;10.20;;;15.10;99.90;;;;;;5071272;28;20577;-55
2022/08/24 02:40:57;;;;;;;11.70;9.50;;;15.10;99.90;;;;;;5071303;28;20044;-51
2022/08/24 02:43:23;;;;;;;11.18;9.88;;;15.00;99.90;;;;;;5070926;28;20039;-52
2022/08/24 02:45:49;;;;;;;10.52;9.38;;;15.10;99.90;;;;;;5071271;28;20017;-53
2022/08/24 02:48:24;;;;;;;12.52;9.63;;;15.10;99.90;;;;;;5071227;28;20226;-52
2022/08/24 02:50:51;;;;;;;10.52;9.43;;;15.10;99.90;;;;;;5073883;28;20029;-56
2022/08/24 02:53:18;;;;;;;17.90;9.23;;;15.00;99.90;;;;;;5074005;28;20020;-52
2022/08/24 02:55:44;;;;;;;10.85;9.23;;;15.00;99.90;;;;;;5075395;28;20638;-54
2022/08/24 02:58:11;;;;;;;9.77;8.60;;;15.00;99.90;;;;;;5074990;28;20468;-54
2022/08/24 03:00:39;;;;;;;10.05;9.05;;;15.00;99.90;;;;;;5075072;28;20162;-54
2022/08/24 03:03:06;;;;;;;11.95;8.98;;;15.00;99.90;;;;;;5075214;28;20044;-54
2022/08/24 03:05:32;;;;;;;12.13;10.07;;;15.00;99.90;;;;;;5074937;28;20028;-53
2022/08/24 03:07:58;;;;;;;12.77;10.20;;;14.90;99.90;;;;;;5075053;28;20075;-54
2022/08/24 03:10:24;;;;;;;17.23;9.88;;;14.90;99.90;;;;;;5075024;28;20065;-52
2022/08/24 03:12:50;;;;;;;13.15;10.95;;;14.90;99.90;;;;;;5075139;28;20029;-55
2022/08/24 03:15:17;;;;;;;13.40;12.00;;;14.90;99.90;;;;;;5074970;28;20030;-51
2022/08/24 03:17:43;;;;;;;14.27;12.77;;;14.90;99.90;;;;;;5075094;28;20078;-53
2022/08/24 03:20:12;;;;;;;16.65;12.63;;;14.90;99.90;;;;;;5074548;28;20434;-52
2022/08/24 03:22:39;;;;;;;20.30;13.73;;;14.90;99.90;;;;;;5074658;28;20107;-54
2022/08/24 03:25:07;;;;;;;17.98;14.98;;;14.90;99.90;;;;;;5074647;28;20585;-52
2022/08/24 03:27:33;;;;;;;19.15;14.05;;;14.90;99.90;;;;;;5074843;28;20056;-52
2022/08/24 03:30:00;;;;;;;17.23;14.10;;;15.00;99.90;;;;;;5074731;28;20024;-54
2022/08/24 03:32:25;;;;;;;19.30;14.18;;;14.90;99.90;;;;;;5074696;28;20037;-53
2022/08/24 03:34:51;;;;;;;16.58;13.90;;;14.90;99.90;;;;;;5074888;28;20021;-52
2022/08/24 03:37:17;;;;;;;20.52;14.55;;;14.90;99.90;;;;;;5074340;28;20032;-51
2022/08/24 03:39:44;;;;;;;15.40;13.52;;;14.90;99.90;;;;;;5074334;28;20031;-54
2022/08/24 03:42:09;;;;;;;15.88;12.63;;;14.80;99.90;;;;;;5073164;28;20115;-52
2022/08/24 03:44:35;;;;;;;16.42;12.77;;;14.70;99.90;;;;;;5074579;28;20103;-51
2022/08/24 03:47:01;;;;;;;13.55;11.65;;;14.70;99.90;;;;;;5074656;28;20024;-52
2022/08/24 03:49:27;;;;;;;17.05;12.07;;;14.60;99.90;;;;;;5074405;28;20123;-53
2022/08/24 03:51:53;;;;;;;17.63;14.02;;;14.60;99.90;;;;;;5074305;28;20538;-52
2022/08/24 03:54:19;;;;;;;14.85;13.18;;;14.50;99.90;;;;;;5074016;28;20021;-52
2022/08/24 03:56:44;;;;;;;18.98;15.05;;;14.60;99.90;;;;;;5072895;28;20021;-52
2022/08/24 03:59:10;;;;;;;20.70;13.75;;;14.60;99.90;;;;;;5074322;28;20471;-52
2022/08/24 04:01:37;;;;;;;15.48;13.60;;;14.60;99.90;;;;;;5072755;28;20502;-52
2022/08/24 04:04:03;;;;;;;15.95;13.57;;;14.70;99.90;;;;;;5074205;28;20036;-52
2022/08/24 04:06:29;;;;;;;22.33;14.18;;;14.70;99.90;;;;;;5073932;28;20035;-50
2022/08/24 04:08:55;;;;;;;16.83;14.50;;;14.80;99.90;;;;;;5073887;28;20028;-52
2022/08/24 04:11:25;;;;;;;16.60;13.90;;;14.80;99.90;;;;;;5073788;28;20029;-52
2022/08/24 04:13:55;;;;;;;18.83;13.40;;;14.80;99.90;;;;;;5074171;28;20035;-52
2022/08/24 04:16:21;;;;;;;16.65;12.80;;;14.80;99.90;;;;;;5073966;28;20025;-54
2022/08/24 04:18:48;;;;;;;15.38;13.52;;;14.80;99.90;;;;;;5073912;28;20025;-54
2022/08/24 04:21:25;;;;;;;17.10;13.52;;;14.80;99.90;;;;;;5073713;28;20020;-52
2022/08/24 04:23:52;;;;;;;19.40;14.45;;;14.80;99.90;;;;;;5073604;28;20032;-54
2022/08/24 04:26:19;;;;;;;16.38;13.55;;;14.90;99.90;;;;;;5073347;28;20028;-53
2022/08/24 04:28:44;;;;;;;19.45;14.27;;;14.90;99.90;;;;;;5072443;28;20049;-55
2022/08/24 04:31:10;;;;;;;17.83;13.52;;;14.90;99.90;;;;;;5072025;28;20098;-52
2022/08/24 04:33:37;;;;;;;16.55;14.52;;;15.00;99.90;;;;;;5072535;28;20479;-51
2022/08/24 04:36:07;;;;;;;20.23;15.45;;;15.00;99.90;;;;;;5072486;28;20020;-51
2022/08/24 04:38:34;;;;;;;19.02;16.35;;;15.20;99.90;;;;;;5072108;28;20032;-52
2022/08/24 04:41:02;;;;;;;19.75;14.90;;;15.30;99.90;;;;;;5072275;28;20028;-51
2022/08/24 04:43:27;;;;;;;21.48;16.23;;;15.40;99.90;;;;;;5072249;28;20028;-52
2022/08/24 04:45:53;;;;;;;21.88;15.40;;;15.50;99.90;;;;;;5072464;28;20573;-51
2022/08/24 04:48:28;;;;;;;16.80;14.65;;;15.60;99.90;;;;;;5072080;28;20544;-51
2022/08/24 04:50:54;;;;;;;16.23;13.93;;;15.70;99.90;;;;;;5071976;28;20017;-51
2022/08/24 04:53:19;;;;;;;15.20;12.48;;;15.80;99.90;;;;;;5071611;28;20048;-52
2022/08/24 04:55:50;;;;;;;19.13;14.00;;;15.90;99.90;;;;;;5071783;28;20024;-52
2022/08/24 04:58:17;;;;;;;17.15;13.48;;;16.00;99.90;;;;;;5071802;28;20052;-53
2022/08/24 05:00:44;;;;;;;21.63;14.07;;;16.00;99.90;;;;;;5071821;28;20085;-51
2022/08/24 05:03:10;;;;;;;19.55;15.48;;;16.10;99.90;;;;;;5071552;28;20032;-52
2022/08/24 05:05:40;;;;;;;20.48;14.63;;;16.10;99.90;;;;;;5071729;28;20601;-52
2022/08/24 05:08:06;;;;;;;15.15;11.45;;;16.20;99.90;;;;;;5071210;28;20123;-52
2022/08/24 05:10:32;;;;;;;17.40;13.55;;;16.20;99.90;;;;;;5070149;28;20082;-54
2022/08/24 05:12:58;;;;;;;15.27;13.15;;;16.30;99.90;;;;;;5070753;28;20032;-51
2022/08/24 05:15:23;;;;;;;15.43;12.98;;;16.40;99.90;;;;;;5071514;28;20021;-52
2022/08/24 05:17:49;;;;;;;16.90;14.35;;;16.40;99.90;;;;;;5071392;28;20032;-51
2022/08/24 05:20:16;;;;;;;20.08;14.25;;;16.50;99.90;;;;;;5071217;28;20440;-51
2022/08/24 05:22:42;;;;;;;15.70;14.05;;;16.50;99.90;;;;;;5071489;28;20396;-52
2022/08/24 05:25:08;;;;;;;15.50;12.90;;;16.60;99.90;;;;;;5071519;28;20025;-52
2022/08/24 05:27:34;;;;;;;19.05;13.98;;;16.60;99.90;;;;;;5071211;28;20481;-52
2022/08/24 05:30:00;;;;;;;20.70;13.73;;;16.70;99.90;;;;;;5071114;28;20021;-51
2022/08/24 05:32:25;;;;;;;18.80;14.85;;;16.70;99.90;;;;;;5070914;28;20085;-53
2022/08/24 05:34:51;;;;;;;14.93;13.20;;;16.80;99.90;;;;;;5071220;28;20032;-54
2022/08/24 05:37:17;;;;;;;18.45;14.73;;;16.80;99.90;;;;;;5069306;28;20024;-52
2022/08/24 05:39:42;;;;;;;15.80;14.10;;;16.90;99.90;;;;;;5070967;28;20101;-53
2022/08/24 05:42:08;;;;;;;15.98;13.77;;;17.00;99.90;;;;;;5070793;28;20035;-51
2022/08/24 05:44:34;;;;;;;22.13;13.95;;;17.00;99.90;;;;;;5071054;28;20148;-52
2022/08/24 05:47:01;;;;;;;15.75;13.55;;;17.10;99.90;;;;;;5070774;28;20097;-51
2022/08/24 05:49:27;;;;;;;14.50;12.65;;;17.10;99.90;;;;;;5070900;28;20038;-52
2022/08/24 05:51:53;;;;;;;17.90;12.93;;;17.20;99.90;;;;;;5070961;28;20029;-50
2022/08/24 05:54:20;;;;;;;17.58;12.80;;;17.20;99.90;;;;;;5070603;28;20032;-55
2022/08/24 05:56:45;;;;;;;16.73;12.57;;;17.30;99.90;;;;;;5069287;28;20472;-53
2022/08/24 05:59:13;;;;;;;45.30;13.95;;;17.40;99.90;;;;;;5070614;28;20028;-53
2022/08/24 06:01:40;;;;;;;18.55;13.20;;;17.40;99.90;;;;;;5069294;28;20070;-55
2022/08/24 06:04:06;;;;;;;15.13;12.48;;;17.50;99.90;;;;;;5070601;28;20372;-54
2022/08/24 06:06:32;;;;;;;17.55;13.70;;;17.50;99.90;;;;;;5070303;28;20025;-53
2022/08/24 06:09:00;;;;;;;14.98;12.63;;;17.60;99.90;;;;;;5069246;28;20545;-54
2022/08/24 06:11:33;;;;;;;15.85;11.95;;;17.70;99.90;;;;;;5070259;28;20108;-53
2022/08/24 06:14:05;;;;;;;14.07;12.63;;;17.70;99.90;;;;;;5070426;28;20039;-53
2022/08/24 06:16:34;;;;;;;19.65;13.43;;;17.80;99.90;;;;;;5070447;28;20082;-51
2022/08/24 06:19:00;;;;;;;15.32;13.68;;;17.80;99.90;;;;;;5070468;28;20025;-51
2022/08/24 06:21:27;;;;;;;15.77;12.32;;;17.80;99.90;;;;;;5070078;28;20030;-52
2022/08/24 06:23:53;;;;;;;16.38;13.10;;;17.80;99.90;;;;;;5068681;28;20074;-52
2022/08/24 06:29:05;;;;;;;25.75;14.35;;;18.00;99.90;;;;;;5070607;28;20082;-52
2022/08/24 06:31:36;;;;;;;26.88;12.77;;;18.00;99.90;;;;;;5068988;28;20027;-55
2022/08/24 06:34:01;;;;;;;15.02;12.82;;;18.10;99.90;;;;;;5070324;28;20054;-51
2022/08/24 06:36:27;;;;;;;17.15;13.02;;;18.20;99.90;;;;;;5068474;28;20024;-53
2022/08/24 06:38:52;;;;;;;16.55;13.38;;;18.30;99.90;;;;;;5070266;28;20108;-52
2022/08/24 06:41:19;;;;;;;16.58;11.52;;;18.30;99.90;;;;;;5070073;28;20024;-56
2022/08/24 06:43:45;;;;;;;13.13;11.40;;;18.50;99.90;;;;;;5070334;28;20111;-52
2022/08/24 06:46:11;;;;;;;11.95;10.75;;;18.50;99.90;;;;;;5070064;28;20111;-54
2022/08/24 06:48:37;;;;;;;12.68;9.15;;;18.60;99.90;;;;;;5070040;28;20024;-55
2022/08/24 06:51:11;;;;;;;11.18;9.27;;;18.80;99.90;;;;;;5069845;28;20556;-51
2022/08/24 06:53:38;;;;;;;10.63;8.68;;;19.00;99.90;;;;;;5070020;28;20031;-56
2022/08/24 06:56:04;;;;;;;8.43;7.53;;;19.30;99.90;;;;;;5068576;28;20025;-51
2022/08/24 06:58:31;;;;;;;10.23;6.80;;;19.40;99.90;;;;;;5070240;28;20045;-52
2022/08/24 07:00:58;;;;;;;8.25;7.45;;;19.60;99.90;;;;;;5068588;28;20024;-54
2022/08/24 07:03:24;;;;;;;8.30;7.25;;;19.60;99.90;;;;;;5069415;28;20028;-53
2022/08/24 07:05:53;;;;;;;6.22;5.60;;;19.40;99.90;;;;;;5070331;28;20021;-53
2022/08/24 07:08:19;;;;;;;8.38;6.65;;;19.40;99.90;;;;;;5069095;28;20388;-50
2022/08/24 07:10:45;;;;;;;7.93;7.03;;;19.50;99.90;;;;;;5068649;28;20032;-55
2022/08/24 07:13:12;;;;;;;8.48;7.10;;;19.60;99.90;;;;;;5069681;28;20020;-54
2022/08/24 07:15:38;;;;;;;11.45;7.80;;;19.60;99.90;;;;;;5069812;28;20033;-53
2022/08/24 07:18:08;;;;;;;9.45;6.10;;;19.50;99.90;;;;;;5068255;28;20025;-53
2022/08/24 07:20:35;;;;;;;7.55;5.60;;;19.60;99.90;;;;;;5071023;28;20020;-53
2022/08/24 07:23:01;;;;;;;8.30;6.32;;;19.70;99.90;;;;;;5069364;28;20046;-54
2022/08/24 07:25:29;;;;;;;7.32;5.53;;;19.60;99.90;;;;;;5069057;28;20098;-52
2022/08/24 07:27:55;;;;;;;6.22;5.63;;;19.50;99.90;;;;;;5101115;28;20028;-59
2022/08/24 07:30:20;;;;;;;6.85;6.15;;;19.60;99.90;;;;;;5069074;28;20029;-53
2022/08/24 07:32:46;;;;;;;5.88;5.25;;;19.80;99.90;;;;;;5069092;28;20552;-54
2022/08/24 07:35:12;;;;;;;6.68;5.50;;;19.90;99.90;;;;;;5068788;28;20021;-51
2022/08/24 07:37:37;;;;;;;5.63;4.47;;;20.10;99.90;;;;;;5072904;28;20056;-54
2022/08/24 07:40:04;;;;;;;8.07;5.57;;;20.20;99.90;;;;;;5072873;28;20044;-56
2022/08/24 07:42:29;;;;;;;7.47;4.38;;;20.30;99.90;;;;;;5072709;28;20044;-52
2022/08/24 07:44:55;;;;;;;6.07;5.22;;;20.40;99.90;;;;;;5073059;28;20085;-52
2022/08/24 07:47:21;;;;;;;11.30;5.10;;;20.50;99.90;;;;;;5068658;28;20021;-53
2022/08/24 07:49:47;;;;;;;5.07;4.57;;;20.30;99.90;;;;;;5072559;28;20108;-49
2022/08/24 07:52:12;;;;;;;5.88;4.43;;;20.20;99.90;;;;;;5072297;28;20012;-52
2022/08/24 07:54:39;;;;;;;7.32;4.57;;;20.40;99.90;;;;;;5076869;28;20032;-54
2022/08/24 07:57:05;;;;;;;5.90;5.35;;;20.40;99.90;;;;;;5081438;28;20048;-52
2022/08/24 07:59:32;;;;;;;6.93;4.60;;;20.50;99.90;;;;;;5072874;28;20023;-55
2022/08/24 08:01:58;;;;;;;6.63;5.03;;;20.50;99.90;;;;;;5091715;28;20054;-54
2022/08/24 08:04:24;;;;;;;6.07;5.22;;;20.60;99.90;;;;;;5093015;28;20533;-52
2022/08/24 08:06:51;;;;;;;7.05;4.20;;;20.70;99.90;;;;;;5092960;28;20334;-51
2022/08/24 08:09:17;;;;;;;4.30;3.90;;;20.90;99.90;;;;;;5052285;28;20033;-52
2022/08/24 08:11:44;;;;;;;5.35;4.20;;;20.90;99.90;;;;;;5052768;28;20032;-51
2022/08/24 08:14:10;;;;;;;4.05;3.63;;;21.10;99.90;;;;;;5079960;28;20024;-50
2022/08/24 08:16:38;;;;;;;3.60;3.00;;;21.30;99.90;;;;;;5072471;28;20016;-54
2022/08/24 08:19:04;;;;;;;3.28;2.97;;;21.50;99.90;;;;;;5072637;28;20013;-51
2022/08/24 08:24:14;;;;;;;3.67;3.35;;;21.70;99.90;;;;;;5072701;28;20433;-51
2022/08/24 08:26:42;;;;;;;6.78;3.33;;;21.70;99.90;;;;;;5072616;28;20040;-50
2022/08/24 08:29:09;;;;;;;7.97;3.50;;;21.80;99.90;;;;;;5072209;28;20487;-51
2022/08/24 08:31:36;;;;;;;4.47;3.63;;;22.00;99.90;;;;;;5072276;28;20033;-51
2022/08/24 08:34:03;;;;;;;4.43;4.03;;;22.00;99.90;;;;;;5069616;28;20324;-61
2022/08/24 08:36:30;;;;;;;6.65;4.28;;;21.90;99.90;;;;;;5072242;28;20131;-53
2022/08/24 08:38:56;;;;;;;8.20;2.80;;;22.10;99.90;;;;;;5072120;28;20024;-51
2022/08/24 08:42:18;;;;;;;3.90;3.20;;;22.20;99.90;;;;;;5072175;28;20368;-51
2022/08/24 08:45:11;;;;;;;3.22;2.75;;;22.30;99.90;;;;;;5010063;28;20041;-54
2022/08/24 08:47:58;;;;;;;4.07;2.90;;;22.20;99.90;;;;;;5007403;28;20041;-51
2022/08/24 08:50:51;;;;;;;2.22;2.05;;;22.40;99.90;;;;;;5065996;28;20395;-55
2022/08/24 08:53:29;;;;;;;2.63;2.40;;;22.50;99.90;;;;;;5071695;28;20027;-54
2022/08/24 08:56:27;;;;;;;3.00;2.60;;;22.60;99.90;;;;;;5071895;28;20591;-51
2022/08/24 08:59:15;;;;;;;2.70;2.50;;;22.60;99.90;;;;;;5071897;28;20024;-52
2022/08/24 09:01:56;;;;;;;3.45;2.97;;;22.70;99.90;;;;;;5070285;28;20073;-51
2022/08/24 09:04:21;;;;;;;6.35;3.28;;;22.70;99.90;;;;;;5069884;28;20024;-53
2022/08/24 09:06:58;;;;;;;2.72;2.45;;;22.90;99.90;;;;;;5070042;28;20057;-51
2022/08/24 09:09:42;;;;;;;3.42;3.05;;;23.00;99.90;;;;;;5070068;28;20027;-51
2022/08/24 09:12:45;;;;;;;5.13;2.92;;;23.30;99.90;;;;;;5069906;28;20074;-55
2022/08/24 09:15:32;;;;;;;7.88;2.75;;;23.50;99.90;;;;;;5070127;28;20028;-52
2022/08/24 09:18:38;;;;;;;4.95;2.95;;;23.70;99.90;;;;;;5070317;28;20021;-54
2022/08/24 09:21:06;;;;;;;4.22;2.92;;;23.60;99.90;;;;;;5062412;28;20307;-54
2022/08/24 09:23:38;;;;;;;3.08;2.58;;;23.70;99.90;;;;;;5071351;28;20024;-52
2022/08/24 09:26:50;;;;;;;5.80;2.50;;;23.70;99.90;;;;;;5071410;28;20032;-51
2022/08/24 09:29:22;;;;;;;1.73;1.63;;;23.80;99.90;;;;;;5065108;28;20087;-51
2022/08/24 09:32:09;;;;;;;2.90;2.28;;;23.70;99.70;;;;;;5070678;28;20028;-51
2022/08/24 09:34:51;;;;;;;5.63;2.33;;;23.50;99.90;;;;;;5071662;28;20476;-53
2022/08/24 09:37:37;;;;;;;3.10;2.35;;;23.60;99.90;;;;;;5071192;28;20472;-53
2022/08/24 09:40:31;;;;;;;4.00;2.67;;;23.70;99.90;;;;;;5069738;28;20450;-53
2022/08/24 09:43:18;;;;;;;2.58;2.30;;;23.60;99.90;;;;;;5071012;28;20028;-51
2022/08/24 09:45:46;;;;;;;2.88;2.60;;;23.30;99.90;;;;;;5070872;28;20036;-51
2022/08/24 09:48:37;;;;;;;2.60;2.40;;;23.50;99.90;;;;;;5070292;28;20025;-53
2022/08/24 09:51:24;;;;;;;2.75;2.55;;;23.80;99.90;;;;;;5070996;28;20055;-52
2022/08/24 09:54:24;;;;;;;5.90;2.90;;;24.10;99.90;;;;;;5070900;28;20021;-51
2022/08/24 09:57:00;;;;;;;3.50;3.20;;;24.30;99.90;;;;;;5070878;28;20020;-54
2022/08/24 09:59:31;;;;;;;3.35;2.70;;;24.50;99.90;;;;;;5070323;28;20489;-51
2022/08/24 10:02:08;;;;;;;8.32;2.47;;;24.90;99.10;;;;;;5070636;28;20142;-52
2022/08/24 10:05:16;;;;;;;7.30;2.60;;;25.50;98.10;;;;;;5070408;28;20064;-54
2022/08/24 10:08:08;;;;;;;7.95;2.47;;;26.00;98.90;;;;;;5061755;28;20036;-55
2022/08/24 10:10:48;;;;;;;2.58;2.38;;;26.40;96.90;;;;;;5071666;28;20039;-52
2022/08/24 10:13:36;;;;;;;3.65;2.58;;;26.40;97.40;;;;;;5071321;28;20425;-53
2022/08/24 10:16:32;;;;;;;2.15;1.95;;;26.30;96.80;;;;;;5066417;28;20021;-51
2022/08/24 10:19:17;;;;;;;3.08;2.30;;;26.40;96.70;;;;;;5063008;28;20020;-55
2022/08/24 10:22:02;;;;;;;1.90;1.77;;;26.40;96.20;;;;;;5071588;28;20120;-56
2022/08/24 10:25:03;;;;;;;2.30;2.00;;;26.70;95.80;;;;;;5070376;28;20071;-52
2022/08/24 10:27:45;;;;;;;5.53;2.40;;;26.60;94.30;;;;;;5074650;28;20043;-52
2022/08/24 10:30:45;;;;;;;4.07;1.77;;;26.80;94.60;;;;;;5071101;28;20028;-51
2022/08/24 10:33:14;;;;;;;1.73;1.63;;;26.60;93.60;;;;;;5071056;28;20265;-55
2022/08/24 10:35:45;;;;;;;3.75;1.73;;;26.40;93.00;;;;;;5066608;28;20035;-52
2022/08/24 10:41:57;;;;;;;5.80;1.98;;;26.40;94.90;;;;;;5071318;28;20036;-53
2022/08/24 10:44:39;;;;;;;4.97;1.80;;;26.90;94.30;;;;;;5070546;28;20390;-54
2022/08/24 10:47:29;;;;;;;4.40;2.00;;;27.00;93.00;;;;;;5070341;28;20513;-52
2022/08/24 10:50:13;;;;;;;1.67;1.45;;;26.90;94.20;;;;;;5070594;28;20048;-53
2022/08/24 10:52:45;;;;;;;1.80;1.70;;;27.00;93.00;;;;;;5070934;28;20036;-54
2022/08/24 10:55:30;;;;;;;2.33;1.77;;;26.70;92.60;;;;;;5071343;28;20056;-54
2022/08/24 10:57:55;;;;;;;4.60;1.90;;;26.70;93.20;;;;;;5071171;28;20032;-52
2022/08/24 11:00:26;;;;;;;2.70;1.55;;;26.80;93.30;;;;;;5071085;28;20376;-53
2022/08/24 11:03:15;;;;;;;2.30;1.92;;;27.00;92.40;;;;;;5081642;28;20020;-53
2022/08/24 11:05:50;;;;;;;2.13;1.55;;;27.00;92.60;;;;;;5051086;28;20021;-50
2022/08/24 11:08:24;;;;;;;3.03;1.73;;;26.90;92.30;;;;;;5069279;28;20047;-52
2022/08/24 11:11:25;;;;;;;3.08;1.27;;;27.10;90.40;;;;;;5092222;28;20382;-53
2022/08/24 11:13:59;;;;;;;2.03;1.80;;;27.20;91.20;;;;;;5062492;28;20557;-53
2022/08/24 11:16:30;;;;;;;2.60;1.50;;;27.10;90.40;;;;;;5080956;28;20162;-52
2022/08/24 11:18:59;;;;;;;1.30;1.20;;;27.10;90.00;;;;;;5075184;28;20410;-54
2022/08/24 11:21:50;;;;;;;2.08;1.55;;;27.60;90.60;;;;;;5074903;28;20020;-53
2022/08/24 11:24:25;;;;;;;2.10;1.60;;;27.70;89.60;;;;;;5074694;28;20063;-53
2022/08/24 11:27:05;;;;;;;2.17;1.65;;;27.70;90.20;;;;;;5074649;28;20024;-54
2022/08/24 11:29:52;;;;;;;2.65;1.02;;;28.30;90.00;;;;;;5074501;28;20425;-52
2022/08/24 11:32:36;;;;;;;1.65;1.40;;;28.80;88.70;;;;;;5074512;28;20039;-53
2022/08/24 11:35:17;;;;;;;4.50;1.90;;;29.30;86.50;;;;;;5074556;28;20055;-52
2022/08/24 11:37:44;;;;;;;2.35;1.52;;;30.20;83.70;;;;;;5074681;28;20033;-55
2022/08/24 11:40:11;;;;;;;4.93;1.23;;;31.40;78.90;;;;;;5074662;28;20020;-57
2022/08/24 11:43:16;;;;;;;1.50;1.40;;;31.90;76.30;;;;;;5074771;28;20067;-53
2022/08/24 11:46:03;;;;;;;1.85;1.40;;;32.20;74.80;;;;;;5074622;28;20107;-56
2022/08/24 11:48:50;;;;;;;2.65;1.27;;;33.20;74.00;;;;;;5072933;28;20047;-57
2022/08/24 11:51:44;;;;;;;5.50;1.77;;;33.60;69.40;;;;;;5092081;28;20032;-55
2022/08/24 11:54:53;;;;;;;4.22;1.17;;;32.90;68.10;;;;;;5094519;28;20031;-56
2022/08/24 11:57:18;;;;;;;5.10;1.58;;;33.40;67.50;;;;;;5069344;28;20040;-56
2022/08/24 12:00:12;;;;;;;6.28;2.28;;;33.20;67.00;;;;;;5094699;28;20046;-57
2022/08/24 12:02:59;;;;;;;2.47;1.80;;;33.40;68.10;;;;;;5078379;28;20082;-57
2022/08/24 12:05:48;;;;;;;2.15;1.88;;;33.70;66.20;;;;;;5074142;28;20714;-57
2022/08/24 12:08:22;;;;;;;8.82;2.42;;;33.60;65.90;;;;;;5073891;28;20040;-57
2022/08/24 12:11:22;;;;;;;7.03;1.80;;;33.30;64.80;;;;;;5074330;28;20032;-56
2022/08/24 12:14:14;;;;;;;1.42;1.30;;;33.10;65.50;;;;;;5081682;28;20467;-55
2022/08/24 12:17:00;;;;;;;2.08;1.70;;;32.30;64.90;;;;;;5092663;28;20433;-57
2022/08/24 12:19:29;;;;;;;2.83;1.40;;;32.10;66.00;;;;;;5093761;28;20046;-56
2022/08/24 12:22:00;;;;;;;4.28;1.90;;;32.30;64.20;;;;;;5092960;28;20042;-55
2022/08/24 12:24:46;;;;;;;1.92;1.55;;;32.80;64.60;;;;;;5093384;28;20074;-57
2022/08/24 12:27:36;;;;;;;2.83;1.77;;;33.60;65.10;;;;;;5093924;28;20016;-57
2022/08/24 12:30:11;;;;;;;2.70;1.85;;;33.70;64.80;;;;;;5077725;28;20028;-57
2022/08/24 12:32:52;;;;;;;2.40;2.17;;;34.30;63.10;;;;;;5073756;28;20106;-56
2022/08/24 12:35:27;;;;;;;2.53;2.05;;;33.90;62.20;;;;;;5073436;28;20032;-57
2022/08/24 12:38:06;;;;;;;2.40;1.98;;;34.10;62.70;;;;;;5073602;28;20032;-55
2022/08/24 12:41:23;;;;;;;3.03;2.00;;;34.00;62.10;;;;;;5073493;28;20107;-54
2022/08/24 12:43:53;;;;;;;3.17;1.40;;;34.20;61.60;;;;;;5040787;28;20383;-56
2022/08/24 12:46:24;;;;;;;4.25;1.65;;;34.60;60.10;;;;;;5093276;28;20028;-56
2022/08/24 12:49:22;;;;;;;3.53;1.80;;;33.30;60.60;;;;;;5093322;28;20028;-57
2022/08/24 12:52:19;;;;;;;3.00;1.63;;;32.10;62.20;;;;;;5093408;28;20032;-56
2022/08/24 12:55:18;;;;;;;1.20;0.98;;;31.50;63.10;;;;;;5092952;28;20019;-55
2022/08/24 12:57:47;;;;;;;1.75;1.50;;;32.10;61.90;;;;;;5092184;28;20023;-55
2022/08/24 13:00:23;;;;;;;1.77;1.60;;;33.40;62.40;;;;;;5091792;28;20131;-57
2022/08/24 13:03:04;;;;;;;1.13;1.05;;;33.90;60.20;;;;;;5092015;28;20030;-58
2022/08/24 13:05:47;;;;;;;1.33;1.23;;;34.50;59.30;;;;;;5091379;28;20028;-57
2022/08/24 13:08:21;;;;;;;6.57;1.48;;;35.70;57.10;;;;;;5090940;28;20118;-58
2022/08/24 13:11:04;;;;;;;5.05;1.30;;;35.60;56.70;;;;;;5090939;28;20024;-57
2022/08/24 13:13:41;;;;;;;1.38;1.20;;;35.40;54.70;;;;;;5078607;28;20102;-58
2022/08/24 13:16:07;;;;;;;3.50;1.15;;;36.00;52.80;;;;;;5059542;28;20029;-58